Terminal Aerodrome Forecast
Issued by NWS Jackson, MS

Home | Current Version | Previous Version | Text Only | Print | Product List | Glossary On
Versions: 1 2 3 4 5 6 7 8 9 10 11 12 13 14 15 16 17
000
FTUS44 KJAN 032332
TAFHBG
TAF
KHBG 032332Z 0400/0424 26006KT P6SM FEW050
     FM041200 24004KT P6SM BKN025
     FM041500 21005KT P6SM OVC050
     FM042000 21005KT P6SM VCTS OVC050CB=

USA.gov is the U.S. government's official web portal to all federal, state and local government web resources and services.